Etusivu
METAR-TAF:

METAR-TAF

Lentoasemat :

Billund, Tanska

Billundin lentoasema

Leveyspiiri: 55-44N, Pituuspiiri: 009-10E, korkeus merenpinnasta: 75 m

Tämänhetkinen sää

Tämä raportti tehtiin 30 minuuttia sitten, kello 20.20 UTC
Tuuli 4 kn lännestä
Lämpötila 15°C
Kosteus 88%
Ilmanpaine 1022 hPa
Näkyvyys 10 km tai enemmän

METAR: EKBI 262020Z AUTO 27004KT 9999NDV NCD 15/13 Q1022

Aika: 22:50 (20:50 UTC)

Sääennuste

Tämä raportti tehtiin 3 tuntia ja 34 minuuttia sitten, kello 17.16 UTC
Ennuste voimassa 26. päivästä klo 18 UTC - 27. päivään klo 18 UTC
Tuuli 6 kn lännestä/luoteesta
Näkyvyys 10 km tai enemmän
ei pilviä alle 1500 m:ssä eikä cumulonimbus-pilviä
Tulossa
27. päivästä klo 06 UTC - 27. päivään klo 09 UTC
Tuuli 10 kn etelästä

TAF: EKBI 261716Z 2618/2718 30006KT CAVOK BECMG 2706/2709 18010KT

Säähavainnot ja -ennusteet yli 4000 lentoasemalta (METAR- ja TAF-raportit).

Käytössä olevat sääasemat on merkitty karttaan keltaisilla ja punaisilla pisteillä.

Aseta hiiri pisteen päälle nähdäksesi sääaseman nimen.

Klikkaa sitten nähdäksesi säähavainnot ja -ennusteet.

Kartan vaihtaminen: klikkaa mustalla rastilla varustettuja vihreitä pisteitä, niin voit zoomata sisään; viivalla varustettua vihreää pistettä, niin voit zoomata ulos tai vihreitä nuolia, niin pääset viereisille kartoille.


METAR-TAF: